Details From EDLW - Dortmund-Wickede
To EDLP - Paderborn Lippstadt
Flight Number -
Tags generated
Created
Modified
Stats Distance 38 nm / 71 km
Max Altitude 4,500 ft / 1,372 m
Waypoints 3
Social Downloads 2
Likes 0
Share VATSIM

Download

Looking for another format? Having issues loading an existing format? Contact us
Advertisement - Login to hide

Notes

Basic altitude profile: - Ascent Rate: 2500ft/min - Ascent Speed: 250kts - Cruise Altitude: 35000ft - Cruise Speed: 420kts - Descent Rate: 1500ft/min - Descent Speed: 250kts

Route

EDLW TINSA EDLP

ID Type Via Altitude Latitude Longitude Leg Dist Tot Dist Heading (true) Name
O EDLW APT - 0 ft / 0 m 51.51911˚ 7.61445˚ - 0 nm - Dortmund-Wickede
TINSA FIX - 4,500 ft / 1,372 m 51.51528˚ 8.07417˚ 17 nm 17 nm 91° / 91° -
O EDLP APT - 0 ft / 0 m 51.61417˚ 8.61634˚ 21 nm 38 nm 73° / 74° Paderborn Lippstadt

Altitude Profile

Advertisement - Login to hide

EDLW

Details ICAO EDLW (DTM)
Name Dortmund-Wickede
Region Germany - Civil
Timezone Europe/Berlin (UTC+1.0)
Stats Elevation 425 ft / 130 m (AMSL)
Location 51.519107° 7.614447°
Runways 1
Magnetic Variation 2.058° E

METAR

EDLW 152320Z AUTO 26003KT 9999 // FEW012/// SCT017/// OVC027/// 02/00 Q1002

Decode

TAF

TAF EDLW 152130Z 1521/1618 CNL= TAF LFKF 152130Z 1521/1615 CNL

Decode

Departure Runways

ID Width Length Bearing (true) Bearing (mag) Surface Threshold Offset Overrun Length
06 148 ft / 45 m 6,546 ft / 1,995 m 60.50° 58.44° Asphalt 984 ft / 300 m 197 ft / 60 m
24 148 ft / 45 m 6,546 ft / 1,995 m 240.52° 238.46° Asphalt 984 ft / 300 m 197 ft / 60 m

EDLP

Details ICAO EDLP (PAD)
Name Paderborn Lippstadt
Region Germany - Civil
Timezone Europe/Berlin (UTC+1.0)
Stats Elevation 699 ft / 213 m (AMSL)
Location 51.614166° 8.616336°
Runways 1
Magnetic Variation 2.357° E

METAR

EDLP 152320Z 20004KT 9999 SCT015 BKN022 02/01 Q1001

Decode

TAF

TAF TAF EDLP 151700Z 1518/1618 VRB03KT 9999 BKN025 BECMG 1522/1602 BKN013 BECMG 1601/1604 26007KT TEMPO 1602/1610 3500 -SNRA BR BKN004 TEMPO 1613/1618 28015KT 4000 -SHSNRA BKN008 SCT015TCU

Decode

Destination Runways

ID Width Length Bearing (true) Bearing (mag) Surface Threshold Offset Overrun Length
06 148 ft / 45 m 7,136 ft / 2,175 m 57.28° 54.92° Asphalt 0 ft / 0 m 1,066 ft / 325 m
24 148 ft / 45 m 7,136 ft / 2,175 m 237.30° 234.94° Asphalt 0 ft / 0 m 397 ft / 121 m

Approach Navaids

Runway Type Ident Frequency Range Bearing (true) Bearing (mag) Slope Elevation
06 Localiser IPLE 111.70 MHz 18 nm / 33 km 57.13° 54.78° - 674 ft / 205 m (AMSL)
06 Glidescope IPLE 111.70 MHz 10 nm / 19 km 57.29° 54.93° 3.00° 699 ft / 213 m (AMSL)
24 Localiser IPLW 108.55 MHz 18 nm / 33 km 236.80° 234.44° - 699 ft / 213 m (AMSL)
24 Glidescope IPLW 108.55 MHz 10 nm / 19 km 237.29° 234.93° 3.00° 674 ft / 205 m (AMSL)

Popular Alternatives